Latest Weather Observations for Carnarvon

IDW60801

Issued at 9:05 pm WST Friday 24 October 2014 (issued every 30 minutes, with the page automatically refreshed every 10 minutes)

About weather observations | Map of weather stations | Latest weather observations for WA | Other Formats
Station Details ID: 006011 Name: CARNARVON AIRPORT Lat: -24.89 Lon: 113.67 Height: 4.0 m
Data from the previous 72 hours. | See also: Recent months at Carnarvon
Date/Time
WST
Temp
°C
App
Temp
°C
Dew
Point
Rel
Hum
%
Delta-T
°C
Wind Press
QNH
hPa
Press
MSL
hPa
Rain
since 9 am
mm
Dir
 
Spd
km/h
Gust
km/h
Spd
kts
Gust
kts
24/09:00pm 21.1 17.3 14.8 67 3.7 SSW 28 39 15 21 1016.6 1016.6 0.0
24/08:30pm 21.4 17.3 15.0 67 3.8 SSW 30 37 16 20 1016.2 - 0.0
24/08:00pm 21.6 17.1 15.0 66 3.9 SSW 32 43 17 23 1016.0 - 0.0
24/07:30pm 21.7 17.3 15.1 66 3.9 SSW 32 41 17 22 1015.2 - 0.0
24/07:00pm 21.9 18.1 15.7 68 3.7 SSW 30 39 16 21 1015.1 - 0.0
24/06:30pm 22.2 18.1 14.9 63 4.3 SSW 30 41 16 22 1014.5 - 0.0
24/06:00pm 22.8 18.5 15.3 62 4.5 SSW 32 43 17 23 1014.1 1014.1 0.0
24/05:30pm 23.7 19.3 15.6 60 4.9 SSW 33 44 18 24 1013.9 - 0.0
24/05:00pm 24.2 20.4 15.8 59 5.1 SSW 30 39 16 21 1013.8 - 0.0
24/04:30pm 24.2 21.5 16.7 63 4.6 SSW 26 33 14 18 1013.8 - 0.0
24/04:00pm 24.6 21.3 16.1 59 5.2 SW 28 37 15 20 1014.0 - 0.0
24/03:30pm 24.8 20.7 14.9 54 5.9 SW 30 37 16 20 1014.1 - 0.0
24/03:00pm 25.0 21.0 15.2 54 5.9 SW 30 39 16 21 1014.3 1014.3 0.0
24/02:30pm 25.4 21.9 15.5 54 6.0 SW 28 35 15 19 1014.5 - 0.0
24/02:00pm 25.3 21.2 13.9 49 6.7 SW 28 35 15 19 1014.6 - 0.0
24/01:30pm 25.1 20.8 13.3 48 6.9 WSW 28 32 15 17 1014.9 - 0.0
24/01:00pm 24.6 21.2 14.7 54 5.9 SSW 26 33 14 18 1015.0 - 0.0
24/12:30pm 24.9 21.4 14.5 52 6.2 SSW 26 33 14 18 1015.2 - 0.0
24/12:00pm 24.5 20.2 13.3 49 6.5 SSW 28 35 15 19 1015.2 1015.2 0.0
24/11:30am 24.7 21.8 15.0 54 5.8 SSW 24 33 13 18 1015.5 - 0.0
24/11:00am 23.1 20.3 15.4 62 4.6 SSW 24 32 13 17 1015.7 - 0.0
24/10:30am 23.9 21.2 15.6 59 5.0 SSW 24 32 13 17 1015.8 - 0.0
24/10:00am 23.8 21.4 15.5 59 5.0 SSW 22 32 12 17 1015.9 - 0.0
24/09:30am 23.6 20.8 15.4 60 4.9 S 24 32 13 17 1016.0 - 0.0
24/09:00am 22.7 19.8 15.1 62 4.5 S 24 30 13 16 1016.1 1016.1 0.0
24/08:30am 22.2 19.3 15.1 64 4.2 S 24 28 13 15 1016.1 - 0.0
24/08:00am 22.0 19.3 14.7 63 4.3 S 22 28 12 15 1015.9 - 0.0
24/07:30am 21.8 18.9 13.9 61 4.6 S 22 30 12 16 1015.8 - 0.0
24/07:00am 20.9 18.7 14.4 66 3.8 S 19 22 10 12 1015.9 - 0.0
24/06:30am 19.8 18.7 15.4 76 2.6 S 15 20 8 11 1015.7 - 0.0
24/06:00am 18.9 17.2 14.6 76 2.5 S 17 20 9 11 1015.4 1015.4 0.0
24/05:30am 18.8 17.1 14.7 77 2.4 S 17 20 9 11 1015.3 - 0.0
24/05:00am 19.1 17.6 15.2 78 2.3 S 17 22 9 12 1014.9 - 0.0
24/04:30am 19.3 17.5 15.4 78 2.3 S 19 24 10 13 1014.9 - 0.0
24/04:00am 19.0 17.4 15.1 78 2.3 S 17 19 9 10 1014.7 - 0.0
24/03:30am 19.1 17.6 15.4 79 2.2 S 17 20 9 11 1014.7 - 0.0
24/03:00am 19.4 18.1 15.9 80 2.1 S 17 22 9 12 1014.8 1014.8 0.0
24/02:30am 19.8 18.2 15.9 78 2.3 S 19 24 10 13 1014.9 - 0.0
24/02:00am 19.9 18.1 16.0 78 2.3 S 20 24 11 13 1015.0 - 0.0
24/01:30am 20.1 17.8 15.7 76 2.6 S 22 30 12 16 1015.3 - 0.0
24/01:00am 20.5 17.3 15.2 71 3.1 S 26 33 14 18 1015.5 - 0.0
24/12:30am 20.5 18.2 15.6 73 2.9 S 22 28 12 15 1015.7 - 0.0
24/12:00am 20.5 18.0 15.2 71 3.1 S 22 28 12 15 1016.0 1016.0 0.0
 
Date/Time
WST
Temp
°C
App
Temp
°C
Dew
Point
Rel
Hum
%
Delta-T
°C
Wind Press
QNH
hPa
Press
MSL
hPa
Rain
since 9 am
mm
Dir
 
Spd
km/h
Gust
km/h
Spd
kts
Gust
kts
23/11:30pm 20.8 17.9 15.2 70 3.3 S 24 30 13 16 1016.2 - 0.0
23/11:00pm 20.9 18.0 15.1 69 3.4 S 24 32 13 17 1016.3 - 0.0
23/10:30pm 21.1 18.5 15.9 72 3.1 S 24 33 13 18 1016.4 - 0.0
23/10:00pm 21.1 18.5 15.9 72 3.1 S 24 32 13 17 1016.4 - 0.0
23/09:30pm 21.2 18.6 16.0 72 3.1 S 24 32 13 17 1016.5 - 0.0
23/09:00pm 21.2 18.2 15.8 71 3.2 SSW 26 33 14 18 1016.4 1016.4 0.0
23/08:30pm 21.2 18.5 15.7 71 3.3 SSW 24 32 13 17 1016.2 - 0.0
23/08:00pm 21.3 18.4 15.2 68 3.6 SSW 24 30 13 16 1016.0 - 0.0
23/07:30pm 21.5 18.9 15.8 70 3.4 SSW 24 33 13 18 1015.8 - 0.0
23/07:00pm 21.6 18.7 15.2 67 3.8 SSW 24 35 13 19 1015.5 - 0.0
23/06:30pm 21.8 18.8 14.7 64 4.2 SSW 24 32 13 17 1015.5 - 0.0
23/06:00pm 22.3 19.6 14.5 61 4.6 SW 22 30 12 16 1015.3 1015.3 0.0
23/05:30pm 22.7 19.2 14.4 59 4.9 SSW 26 35 14 19 1015.2 - 0.0
23/05:00pm 23.6 19.9 14.0 55 5.6 SW 26 32 14 17 1015.2 - 0.0
23/04:30pm 23.8 20.3 13.5 52 6.0 SW 24 33 13 18 1015.3 - 0.0
23/04:00pm 24.0 20.1 13.3 51 6.2 SW 26 33 14 18 1015.5 - 0.0
23/03:30pm 24.0 19.8 12.5 48 6.6 SW 26 35 14 19 1015.5 - 0.0
23/03:00pm 24.7 20.4 10.9 42 7.7 SW 24 35 13 19 1015.7 1015.7 0.0
23/02:30pm 24.5 19.9 10.9 42 7.6 SW 26 32 14 17 1016.0 - 0.0
23/02:00pm 24.6 20.2 10.3 40 7.9 SSW 24 32 13 17 1016.3 - 0.0
23/01:30pm 24.5 20.1 10.4 41 7.8 SSW 24 33 13 18 1016.5 - 0.0
23/01:00pm 24.1 19.7 10.3 41 7.6 SSW 24 33 13 18 1016.7 - 0.0
23/12:30pm 24.4 20.1 10.7 42 7.6 SSW 24 30 13 16 1017.1 - 0.0
23/12:00pm 23.8 19.5 10.6 43 7.3 SW 24 30 13 16 1017.2 1017.2 0.0
23/11:30am 24.3 19.8 11.3 44 7.3 SW 26 33 14 18 1017.7 - 0.0
23/11:00am 23.9 19.7 11.2 44 7.1 SSW 24 32 13 17 1017.9 - 0.0
23/10:30am 23.6 19.6 10.3 43 7.3 SW 22 32 12 17 1018.1 - 0.0
23/10:00am 24.0 20.2 11.3 45 7.1 SSW 22 28 12 15 1018.1 - 0.0
23/09:30am 23.3 20.0 11.7 48 6.5 SSW 20 26 11 14 1018.0 - 0.0
23/09:00am 22.9 19.9 11.9 50 6.2 SSW 19 22 10 12 1017.9 1017.9 0.0
23/08:30am 23.1 20.8 11.7 48 6.4 S 15 22 8 12 1017.6 - 0.0
23/08:00am 22.1 19.7 11.3 50 6.0 S 15 20 8 11 1017.6 - 0.0
23/07:30am 22.0 19.2 11.4 51 5.9 S 17 22 9 12 1017.5 - 0.0
23/07:00am 21.2 18.0 11.2 53 5.5 S 19 22 10 12 1017.4 - 0.0
23/06:30am 20.5 17.3 11.4 56 5.0 S 19 24 10 13 1017.2 - 0.0
23/06:00am 19.9 16.1 11.3 57 4.7 SSW 22 30 12 16 1016.8 1016.8 0.0
23/05:30am 19.8 16.6 11.9 60 4.4 SSW 20 32 11 17 1016.5 - 0.0
23/05:00am 20.3 17.3 13.7 66 3.8 SSW 22 32 12 17 1016.6 - 0.0
23/04:30am 19.8 17.9 13.1 65 3.8 S 15 20 8 11 1016.6 - 0.0
23/04:00am 19.8 17.0 12.7 63 4.0 SSW 19 26 10 14 1016.6 - 0.0
23/03:30am 20.0 17.2 12.7 63 4.1 SSW 19 24 10 13 1016.6 - 0.0
23/03:00am 20.1 17.3 13.2 64 3.9 SW 20 28 11 15 1016.7 1016.7 0.0
23/02:30am 20.6 17.5 14.6 68 3.5 SSW 24 32 13 17 1016.8 - 0.0
23/02:00am 20.7 17.9 15.3 71 3.2 SSW 24 32 13 17 1016.9 - 0.0
23/01:30am 20.9 18.8 14.6 67 3.7 SSW 19 24 10 13 1017.2 - 0.0
23/01:00am 20.8 18.9 15.2 70 3.3 SW 19 24 10 13 1017.3 - 0.0
23/12:30am 20.7 19.1 15.1 70 3.3 SW 17 22 9 12 1017.4 - 0.0
23/12:00am 20.9 19.0 15.1 69 3.4 SW 19 26 10 14 1017.6 1017.6 0.0
 
Date/Time
WST
Temp
°C
App
Temp
°C
Dew
Point
Rel
Hum
%
Delta-T
°C
Wind Press
QNH
hPa
Press
MSL
hPa
Rain
since 9 am
mm
Dir
 
Spd
km/h
Gust
km/h
Spd
kts
Gust
kts
22/11:30pm 20.9 19.3 16.1 74 2.9 SW 19 24 10 13 1017.8 - 0.0
22/11:00pm 21.1 19.5 15.9 72 3.1 SW 19 28 10 15 1018.0 - 0.0
22/10:30pm 21.3 19.7 16.5 74 2.9 SW 20 28 11 15 1018.3 - 0.0
22/10:00pm 21.4 19.7 16.3 72 3.1 SW 20 28 11 15 1018.3 - 0.0
22/09:30pm 21.7 20.2 16.4 72 3.2 SW 19 24 10 13 1018.3 - 0.0
22/09:00pm 21.6 20.5 16.3 72 3.2 SW 17 24 9 13 1018.4 1018.4 0.0
22/08:30pm 21.7 20.5 16.0 70 3.4 SW 17 22 9 12 1018.3 - 0.0
22/08:00pm 21.8 20.6 16.0 69 3.5 WSW 17 26 9 14 1018.2 - 0.0
22/07:30pm 21.9 21.2 16.3 70 3.4 WSW 15 20 8 11 1018.1 - 0.0
22/07:00pm 21.9 20.1 15.9 68 3.6 WSW 20 28 11 15 1017.6 - 0.0
22/06:30pm 22.2 20.6 15.9 67 3.8 WSW 19 24 10 13 1017.5 - 0.0
22/06:00pm 23.0 21.1 15.7 63 4.4 WSW 20 28 11 15 1017.2 1017.2 0.0
22/05:30pm 23.4 20.6 15.4 60 4.8 WSW 24 32 13 17 1017.0 - 0.0
22/05:00pm 23.4 20.5 15.0 59 5.0 WSW 24 37 13 20 1017.1 - 0.0
22/04:30pm 24.0 21.1 15.1 57 5.3 WSW 24 32 13 17 1016.9 - 0.0
22/04:00pm 23.8 20.2 14.1 54 5.7 WSW 26 32 14 17 1017.0 - 0.0
22/03:30pm 24.0 20.2 13.7 52 6.0 WSW 26 32 14 17 1017.0 - 0.0
22/03:00pm 24.1 21.1 13.6 52 6.1 WSW 22 28 12 15 1017.0 1017.0 0.0
22/02:30pm 24.3 21.8 14.1 53 6.0 SW 20 28 11 15 1017.2 - 0.0
22/02:00pm 24.4 21.7 13.6 51 6.3 SW 20 28 11 15 1017.2 - 0.0
22/01:30pm 24.9 22.4 13.6 49 6.6 SW 19 28 10 15 1017.5 - 0.0
22/01:00pm 25.1 23.1 13.9 49 6.6 SW 17 26 9 14 1017.6 - 0.0
22/12:30pm 23.9 21.9 14.0 54 5.8 SW 17 24 9 13 1017.9 - 0.0
22/12:00pm 23.8 22.2 14.9 57 5.3 WSW 17 22 9 12 1018.3 1018.3 0.0
22/11:30am 23.6 22.3 14.8 57 5.2 SW 15 24 8 13 1018.5 - 0.0
22/11:00am 24.0 21.8 14.5 55 5.6 SSW 19 24 10 13 1018.7 - 0.0
22/10:30am 23.8 21.6 14.9 57 5.3 SSW 20 26 11 14 1018.7 - 0.0
22/10:00am 24.1 21.8 14.7 55 5.6 SSW 20 26 11 14 1018.8 - 0.0
22/09:30am 23.1 21.1 15.0 60 4.8 SSW 19 24 10 13 1018.7 - 0.0
22/09:00am 22.9 20.7 14.8 60 4.8 SSW 20 28 11 15 1018.5 1018.5 0.0
22/08:30am 22.8 20.6 14.9 61 4.7 SSW 20 26 11 14 1018.4 - 0.0
22/08:00am 22.3 20.0 14.7 62 4.5 SSW 20 28 11 15 1018.1 - 0.0
22/07:30am 22.0 19.6 14.5 62 4.4 SW 20 28 11 15 1018.2 - 0.0
22/07:00am 21.2 19.0 14.5 65 3.9 SW 19 30 10 16 1017.9 - 0.0
22/06:30am 20.7 18.5 14.3 66 3.7 SW 19 26 10 14 1017.7 - 0.0
22/06:00am 20.4 18.1 14.2 67 3.6 SW 19 24 10 13 1017.5 1017.5 0.0
22/05:30am 20.4 18.3 14.8 70 3.3 SW 19 26 10 14 1017.1 - 0.0
22/05:00am 20.5 18.4 14.7 69 3.4 SW 19 26 10 14 1016.9 - 0.0
22/04:30am 20.6 18.6 15.0 70 3.3 SW 19 28 10 15 1016.7 - 0.0
22/04:00am 20.4 18.6 15.5 73 2.9 SW 19 24 10 13 1016.6 - 0.0
22/03:30am 20.4 18.5 15.3 72 3.0 SW 19 24 10 13 1016.6 - 0.0
22/03:00am 20.4 18.5 15.3 72 3.0 SW 19 28 10 15 1016.4 1016.4 0.0
22/02:30am 20.2 19.2 15.6 75 2.7 SW 15 22 8 12 1016.5 - 0.0
22/02:00am 20.1 19.1 15.7 76 2.6 SW 15 19 8 10 1016.5 - 0.0
22/01:30am 20.2 18.9 15.8 76 2.6 SSW 17 22 9 12 1016.6 - 0.0
22/01:00am 20.3 19.0 15.8 75 2.7 SW 17 22 9 12 1016.8 - 0.0
22/12:30am 20.3 19.0 15.9 76 2.6 SW 17 24 9 13 1016.9 - 0.0
22/12:00am 20.3 18.3 15.6 74 2.8 SW 20 26 11 14 1016.7 1016.7 0.0
 
Date/Time
WST
Temp
°C
App
Temp
°C
Dew
Point
Rel
Hum
%
Delta-T
°C
Wind Press
QNH
hPa
Press
MSL
hPa
Rain
since 9 am
mm
Dir
 
Spd
km/h
Gust
km/h
Spd
kts
Gust
kts
21/11:30pm 20.5 18.8 16.2 76 2.6 SSW 20 28 11 15 1016.8 - 0.0
21/11:00pm 20.4 18.6 16.1 76 2.6 SSW 20 28 11 15 1016.9 - 0.0
21/10:30pm 20.6 18.2 16.4 77 2.5 SSW 24 30 13 16 1017.0 - 0.0
21/10:00pm 20.7 18.7 16.4 76 2.6 SW 22 30 12 16 1017.7 - 0.0
21/09:30pm 20.9 19.3 16.4 75 2.7 SSW 20 30 11 16 1017.9 - 0.0

Other Formats:

Comma delimited format used in spreadsheet applications
http://www.bom.gov.au/fwo/IDW60801/IDW60801.94300.axf

JavaScript Object Notation format (JSON) in row-major order
http://www.bom.gov.au/fwo/IDW60801/IDW60801.94300.json